createdAt,value
2022-12-23T07:07:54.845Z,95.63
2022-12-23T07:12:56.909Z,95.63
2022-12-23T07:17:58.993Z,95.65
2022-12-23T07:23:01.131Z,95.56
2022-12-23T07:28:03.253Z,95.36
2022-12-23T07:33:05.357Z,95.16
2022-12-23T07:38:07.499Z,95.19
2022-12-23T07:43:10.168Z,94.93
2022-12-23T07:48:12.302Z,94.80
2022-12-23T07:53:14.408Z,94.83
2022-12-23T07:58:16.457Z,94.70
2022-12-23T08:03:18.679Z,94.63
2022-12-23T08:08:20.815Z,94.76
2022-12-23T08:13:22.928Z,94.63
2022-12-23T08:18:26.036Z,94.44
2022-12-23T08:23:29.856Z,93.87
2022-12-23T08:28:32.578Z,93.59
2022-12-23T08:33:36.690Z,93.27
2022-12-23T08:38:38.792Z,93.23
2022-12-23T08:43:40.972Z,93.50
2022-12-23T08:48:48.872Z,93.34
2022-12-23T08:53:59.822Z,93.80
2022-12-23T08:59:04.055Z,93.80
2022-12-23T09:04:07.386Z,93.68
2022-12-23T09:09:12.880Z,93.14
2022-12-23T09:14:15.019Z,92.92
2022-12-23T09:19:17.080Z,93.02
2022-12-23T09:24:19.123Z,93.45
2022-12-23T09:29:21.301Z,93.21
2022-12-23T09:34:23.393Z,93.11
2022-12-23T09:39:25.721Z,92.68
2022-12-23T09:44:30.574Z,92.52
2022-12-23T09:49:34.054Z,92.72
2022-12-23T09:54:46.205Z,92.37
2022-12-23T10:00:26.628Z,92.31
2022-12-23T10:05:57.936Z,92.21
2022-12-23T10:11:04.380Z,91.92
2022-12-23T10:16:16.896Z,91.85
2022-12-23T10:21:33.930Z,92.41
2022-12-23T10:26:46.810Z,92.43
2022-12-23T10:32:17.413Z,92.48
2022-12-23T10:37:30.089Z,92.29
2022-12-23T10:42:43.838Z,92.80
2022-12-23T10:47:59.764Z,92.74
2022-12-23T10:53:06.408Z,92.85
2022-12-23T10:58:18.229Z,93.33
2022-12-23T11:03:24.038Z,93.15
2022-12-23T11:08:29.260Z,93.01
2022-12-23T11:13:37.643Z,92.79
2022-12-23T11:18:56.370Z,92.53
2022-12-23T11:24:18.129Z,92.55
2022-12-23T11:29:29.304Z,92.54
2022-12-23T11:34:37.722Z,92.67
2022-12-23T11:39:46.521Z,92.53
2022-12-23T11:44:51.941Z,93.15
2022-12-23T11:49:57.181Z,92.76
2022-12-23T11:55:05.413Z,92.81
2022-12-23T12:00:19.082Z,92.95
2022-12-23T12:05:24.064Z,93.49
2022-12-23T12:10:32.815Z,93.85
2022-12-23T12:15:51.529Z,93.54
2022-12-23T12:21:01.198Z,93.26
2022-12-23T12:26:08.409Z,93.13
2022-12-23T12:31:26.048Z,92.86
2022-12-23T12:36:46.624Z,92.57
2022-12-23T12:42:05.039Z,92.29
2022-12-23T12:52:59.597Z,92.22
2022-12-23T12:58:04.747Z,92.10
2022-12-23T13:03:49.641Z,91.99
2022-12-23T13:08:52.050Z,92.66
2022-12-23T13:14:18.908Z,92.86
2022-12-23T13:19:33.358Z,93.01
2022-12-23T13:25:10.794Z,93.00
2022-12-23T13:30:17.834Z,92.93
2022-12-23T13:35:41.177Z,93.28
2022-12-23T13:41:05.854Z,93.19
2022-12-23T13:46:24.573Z,93.64
2022-12-23T13:51:37.745Z,93.85
2022-12-23T13:56:49.570Z,93.74
2022-12-23T14:01:52.672Z,93.50
2022-12-23T14:06:58.356Z,93.32
2022-12-23T14:12:22.219Z,93.18
2022-12-23T14:18:04.575Z,93.08
2022-12-23T14:23:25.629Z,93.11
2022-12-23T14:28:33.832Z,93.45
2022-12-23T14:33:37.786Z,93.51
2022-12-23T14:38:40.755Z,93.41
2022-12-23T14:43:45.773Z,93.33
2022-12-23T14:48:47.996Z,93.34
2022-12-23T14:53:53.697Z,93.37
2022-12-23T14:59:14.107Z,93.29
2022-12-23T15:04:22.082Z,93.49
2022-12-23T15:09:31.627Z,93.55
2022-12-23T15:14:50.849Z,93.61
2022-12-23T15:19:53.686Z,93.74
2022-12-23T15:24:55.817Z,93.66
2022-12-23T15:29:58.760Z,93.60
2022-12-23T15:35:06.198Z,93.56
2022-12-23T15:40:34.221Z,93.52
2022-12-23T15:45:42.069Z,93.54
2022-12-23T15:50:44.222Z,93.41
2022-12-23T15:55:48.898Z,93.31
2022-12-23T16:00:59.068Z,93.40
2022-12-23T16:06:16.936Z,93.56
2022-12-23T16:11:21.078Z,93.61
2022-12-23T16:16:34.170Z,93.63
2022-12-23T16:21:37.085Z,93.68
2022-12-23T16:26:41.859Z,93.68
2022-12-23T16:31:51.237Z,93.66
2022-12-23T16:36:57.943Z,93.59
2022-12-23T16:42:00.084Z,93.41
2022-12-23T16:47:13.339Z,93.22
2022-12-23T16:52:15.773Z,93.15
2022-12-23T16:57:17.869Z,93.21
2022-12-23T17:02:25.176Z,93.36
2022-12-23T17:07:27.626Z,93.32
2022-12-23T17:12:29.786Z,93.34
2022-12-23T17:17:32.439Z,93.34
2022-12-23T17:22:36.660Z,93.40
2022-12-23T17:27:39.586Z,93.35
2022-12-23T17:32:41.813Z,93.30
2022-12-23T17:37:43.944Z,93.27
2022-12-23T17:42:47.162Z,93.22
2022-12-23T17:47:49.449Z,93.22
2022-12-23T17:52:52.569Z,93.29
2022-12-23T17:57:55.750Z,93.24
2022-12-23T18:02:57.943Z,93.23
2022-12-23T18:08:01.525Z,93.34
2022-12-23T18:13:07.239Z,93.32
2022-12-23T18:18:20.475Z,93.39
2022-12-23T18:23:30.171Z,93.36
2022-12-23T18:28:32.368Z,93.31
2022-12-23T18:33:34.465Z,93.24
2022-12-23T18:38:36.600Z,93.35
2022-12-23T18:43:38.789Z,93.40
2022-12-23T18:48:40.932Z,93.58
2022-12-23T18:53:43.689Z,93.65
2022-12-23T18:58:45.922Z,93.76
2022-12-23T19:03:48.005Z,93.71
2022-12-23T19:08:50.079Z,93.65
2022-12-23T19:13:52.265Z,93.75
2022-12-23T19:18:54.335Z,93.91
2022-12-23T19:23:57.924Z,94.23
2022-12-23T19:29:00.355Z,94.51
2022-12-23T19:34:02.433Z,94.60
2022-12-23T19:39:04.483Z,94.50
2022-12-23T19:44:06.672Z,94.48
2022-12-23T19:49:11.628Z,94.63
2022-12-23T19:54:17.315Z,94.68
2022-12-23T19:59:20.451Z,94.69
2022-12-23T20:04:24.925Z,94.64
2022-12-23T20:09:27.097Z,94.72
2022-12-23T20:14:33.755Z,94.68
2022-12-23T20:19:43.768Z,94.70
2022-12-23T20:24:47.842Z,94.78
2022-12-23T20:29:49.936Z,94.95
2022-12-23T20:34:52.025Z,95.14
2022-12-23T20:39:54.265Z,95.23
2022-12-23T20:44:56.298Z,95.41
2022-12-23T20:49:58.420Z,95.38
2022-12-23T20:55:01.700Z,95.25
2022-12-23T21:00:05.673Z,95.30
2022-12-23T21:05:08.146Z,95.38
2022-12-23T21:10:10.499Z,95.46
2022-12-23T21:15:12.603Z,95.42
2022-12-23T21:20:14.900Z,95.38
2022-12-23T21:25:17.172Z,95.33
2022-12-23T21:30:19.429Z,95.27
2022-12-23T21:35:21.545Z,95.15
2022-12-23T21:40:23.683Z,94.92
2022-12-23T21:45:25.741Z,94.69
2022-12-23T21:50:27.820Z,94.64
2022-12-23T21:55:29.992Z,94.62
2022-12-23T22:00:32.162Z,94.50
2022-12-23T22:05:34.264Z,94.36
2022-12-23T22:10:39.251Z,94.30
